createdAt,value
2017-01-21T00:00:20.421Z,81.01
2017-01-21T00:01:01.094Z,81.01
2017-01-21T00:01:41.676Z,81.29
2017-01-21T00:02:22.293Z,81.2
2017-01-21T00:03:02.950Z,81.2
2017-01-21T00:03:43.582Z,81.01
2017-01-21T00:04:24.260Z,81.1
2017-01-21T00:05:04.884Z,81.1
2017-01-21T00:05:45.540Z,81.1
2017-01-21T00:06:26.189Z,81.2
2017-01-21T00:07:06.784Z,81.57
2017-01-21T00:07:47.380Z,81.2
2017-01-21T00:08:27.948Z,81.1
2017-01-21T00:09:08.596Z,81.1
2017-01-21T00:09:49.200Z,81.67
2017-01-21T00:10:29.794Z,81.76
2017-01-21T00:11:10.362Z,81.95
2017-01-21T00:11:51.035Z,81.57
2017-01-21T00:12:31.655Z,81.57
2017-01-21T00:13:12.319Z,81.67
2017-01-21T00:13:52.981Z,81.57
2017-01-21T00:14:33.628Z,81.67
2017-01-21T00:15:14.291Z,81.57
2017-01-21T00:15:54.902Z,81.76
2017-01-21T00:16:35.472Z,81.57
2017-01-21T00:17:16.075Z,81.76
2017-01-21T00:17:56.675Z,81.48
2017-01-21T00:18:37.246Z,81.76
2017-01-21T00:19:17.909Z,81.57
2017-01-21T00:19:58.585Z,81.48
2017-01-21T00:20:39.285Z,81.95
2017-01-21T00:21:19.851Z,81.95
2017-01-21T00:22:00.514Z,81.67
2017-01-21T00:22:41.163Z,81.67
2017-01-21T00:23:21.837Z,81.76
2017-01-21T00:24:03.470Z,82.04
2017-01-21T00:24:44.133Z,82.14
2017-01-21T00:25:24.801Z,82.04
2017-01-21T00:26:05.448Z,81.85
2017-01-21T00:26:46.097Z,81.76
2017-01-21T00:27:26.786Z,81.85
2017-01-21T00:28:07.418Z,82.32
2017-01-21T00:28:49.081Z,82.51
2017-01-21T00:29:29.738Z,82.42
2017-01-21T00:30:10.380Z,82.14
2017-01-21T00:30:51.036Z,82.23
2017-01-21T00:31:31.693Z,81.95
2017-01-21T00:32:12.380Z,82.04
2017-01-21T00:32:52.979Z,81.95
2017-01-21T00:33:33.515Z,82.23
2017-01-21T00:34:14.206Z,82.04
2017-01-21T00:34:54.896Z,82.04
2017-01-21T00:35:35.497Z,81.85
2017-01-21T00:36:16.056Z,81.95
2017-01-21T00:36:56.723Z,82.51
2017-01-21T00:37:37.396Z,82.42
2017-01-21T00:38:17.998Z,82.32
2017-01-21T00:38:58.567Z,82.23
2017-01-21T00:39:39.227Z,82.32
2017-01-21T00:40:19.915Z,82.04
2017-01-21T00:41:00.505Z,82.23
2017-01-21T00:41:41.080Z,82.14
2017-01-21T00:42:21.727Z,82.23
2017-01-21T00:43:02.421Z,82.61
2017-01-21T00:43:43.022Z,82.99
2017-01-21T00:44:23.602Z,82.89
2017-01-21T00:45:04.248Z,82.8
2017-01-21T00:45:45.846Z,82.8
2017-01-21T00:46:26.546Z,83.08
2017-01-21T00:47:07.106Z,82.7
2017-01-21T00:47:47.782Z,82.61
2017-01-21T00:48:28.527Z,83.08
2017-01-21T00:49:09.159Z,83.14
2017-01-21T00:49:49.752Z,82.89
2017-01-21T00:50:30.377Z,82.99
2017-01-21T00:51:10.963Z,82.76
2017-01-21T00:51:51.569Z,82.66
2017-01-21T00:52:32.140Z,82.85
2017-01-21T00:53:12.801Z,82.7
2017-01-21T00:53:53.429Z,83.51
2017-01-21T00:54:34.096Z,83.27
2017-01-21T00:55:14.735Z,83.36
2017-01-21T00:55:55.406Z,83.27
2017-01-21T00:56:36.055Z,83.36
2017-01-21T00:57:16.708Z,83.36
2017-01-21T00:57:57.343Z,83.08
2017-01-21T00:58:38.020Z,83.27
2017-01-21T00:59:18.674Z,83.23
2017-01-21T00:59:59.322Z,83.33
2017-01-21T01:00:39.954Z,83.36
2017-01-21T01:01:20.622Z,83.23
2017-01-21T01:02:01.204Z,83.14
2017-01-21T01:02:41.811Z,83.51
2017-01-21T01:03:22.378Z,83.7
2017-01-21T01:04:03.042Z,83.8
2017-01-21T01:04:44.643Z,83.7
2017-01-21T01:05:25.343Z,83.61
2017-01-21T01:06:05.990Z,83.89
2017-01-21T01:06:46.684Z,83.7
2017-01-21T01:07:27.271Z,83.8
2017-01-21T01:08:07.849Z,83.7
2017-01-21T01:08:48.448Z,84.08
2017-01-21T01:09:29.067Z,84.17
2017-01-21T01:10:09.685Z,84.08
2017-01-21T01:10:50.357Z,83.8
2017-01-21T01:11:30.970Z,83.98
2017-01-21T01:12:11.583Z,83.98
2017-01-21T01:12:52.235Z,83.8
2017-01-21T01:13:33.914Z,83.89
2017-01-21T01:14:14.568Z,83.7
2017-01-21T01:14:55.221Z,84.45
2017-01-21T01:15:35.863Z,84.08
2017-01-21T01:16:16.515Z,83.8
2017-01-21T01:16:57.173Z,83.98
2017-01-21T01:17:37.827Z,84.45
2017-01-21T01:18:18.488Z,84.27
2017-01-21T01:18:59.134Z,84.83
2017-01-21T01:19:39.784Z,84.74
2017-01-21T01:20:20.440Z,84.74
2017-01-21T01:21:01.119Z,84.55
2017-01-21T01:21:41.773Z,84.69
2017-01-21T01:22:22.435Z,84.64
2017-01-21T01:23:03.092Z,84.41
2017-01-21T01:23:43.725Z,84.27
2017-01-21T01:24:24.391Z,84.45
2017-01-21T01:25:05.039Z,84.92
2017-01-21T01:25:45.692Z,84.92
2017-01-21T01:26:26.355Z,84.55
2017-01-21T01:27:07.003Z,84.92
2017-01-21T01:27:47.632Z,84.74
2017-01-21T01:28:28.304Z,84.83
2017-01-21T01:29:08.952Z,84.83
2017-01-21T01:29:49.624Z,85.21
2017-01-21T01:30:30.260Z,85.21
2017-01-21T01:31:10.921Z,85.21
2017-01-21T01:31:51.573Z,85.02
2017-01-21T01:32:32.224Z,85.21
2017-01-21T01:33:12.898Z,85.02
2017-01-21T01:33:53.554Z,85.11
2017-01-21T01:34:34.174Z,85.3
2017-01-21T01:35:14.831Z,85.02
2017-01-21T01:35:55.497Z,85.02
2017-01-21T01:36:36.133Z,85.3
2017-01-21T01:37:16.786Z,85.02
2017-01-21T01:37:57.389Z,84.92
2017-01-21T01:38:38.005Z,84.92
2017-01-21T01:39:18.644Z,85.11
2017-01-21T01:39:59.223Z,85.02
2017-01-21T01:40:39.848Z,85.02
2017-01-21T01:41:20.490Z,85.02
2017-01-21T01:42:01.057Z,84.83
2017-01-21T01:42:41.711Z,84.92
2017-01-21T01:43:22.405Z,85.11
2017-01-21T01:44:03.040Z,85.4
2017-01-21T01:44:43.696Z,85.4
2017-01-21T01:45:24.341Z,85.3
2017-01-21T01:46:04.974Z,85.3
2017-01-21T01:46:45.645Z,85.49
2017-01-21T01:47:26.271Z,85.21
2017-01-21T01:48:06.951Z,85.96
2017-01-21T01:48:47.642Z,85.68
2017-01-21T01:49:28.240Z,85.96
2017-01-21T01:50:08.883Z,85.87
2017-01-21T01:50:49.551Z,85.68
2017-01-21T01:51:30.194Z,85.77
2017-01-21T01:52:10.869Z,85.68
2017-01-21T01:52:51.521Z,85.68
2017-01-21T01:53:32.151Z,85.68
2017-01-21T01:54:12.834Z,85.49
2017-01-21T01:54:53.450Z,85.49
2017-01-21T01:55:34.122Z,85.68
2017-01-21T01:56:14.773Z,85.4
2017-01-21T01:56:55.436Z,85.68
2017-01-21T01:57:36.113Z,85.59
2017-01-21T01:58:16.708Z,85.68
2017-01-21T01:58:57.273Z,85.68
2017-01-21T01:59:37.923Z,85.87
2017-01-21T02:00:18.523Z,85.96
2017-01-21T02:00:59.123Z,85.96
2017-01-21T02:01:39.689Z,85.96
2017-01-21T02:02:20.328Z,85.96
2017-01-21T02:03:01.001Z,85.68
2017-01-21T02:03:41.657Z,86.44
2017-01-21T02:04:22.276Z,86.44
2017-01-21T02:05:02.942Z,86.06
2017-01-21T02:05:43.608Z,86.06
2017-01-21T02:06:24.265Z,86.34
2017-01-21T02:07:04.915Z,85.96
2017-01-21T02:07:45.545Z,86.34
2017-01-21T02:08:26.104Z,85.87
2017-01-21T02:09:06.755Z,86.25
2017-01-21T02:09:47.401Z,86.06
2017-01-21T02:10:27.977Z,86.34
2017-01-21T02:11:08.605Z,85.77
2017-01-21T02:11:49.263Z,86.34
2017-01-21T02:12:29.838Z,86.25
2017-01-21T02:13:10.471Z,86.15
2017-01-21T02:13:51.134Z,86.06
2017-01-21T02:14:31.785Z,86.72
2017-01-21T02:15:12.432Z,86.72
2017-01-21T02:15:53.084Z,86.72
2017-01-21T02:16:33.746Z,86.72
2017-01-21T02:17:14.389Z,86.82
2017-01-21T02:17:55.065Z,86.82
2017-01-21T02:18:35.703Z,86.72
2017-01-21T02:19:16.367Z,86.82
2017-01-21T02:19:57.006Z,86.53
2017-01-21T02:20:37.652Z,86.53
2017-01-21T02:21:18.325Z,86.72
2017-01-21T02:21:58.960Z,86.53
2017-01-21T02:22:39.623Z,86.63
2017-01-21T02:23:20.263Z,86.82
2017-01-21T02:24:00.923Z,86.82
2017-01-21T02:24:41.619Z,86.34
2017-01-21T02:25:22.246Z,86.63
2017-01-21T02:26:02.892Z,86.72
2017-01-21T02:26:43.537Z,86.91
2017-01-21T02:27:24.151Z,86.63
2017-01-21T02:28:04.823Z,86.82
2017-01-21T02:28:45.405Z,86.72
2017-01-21T02:29:26.046Z,86.53
2017-01-21T02:30:06.650Z,86.44
2017-01-21T02:30:47.332Z,86.53
2017-01-21T02:31:27.914Z,86.63
2017-01-21T02:32:08.574Z,86.63
2017-01-21T02:32:49.207Z,86.63
2017-01-21T02:33:29.891Z,86.72
2017-01-21T02:34:10.527Z,86.63
2017-01-21T02:34:51.106Z,87
2017-01-21T02:35:31.718Z,86.91
2017-01-21T02:36:12.363Z,86.91
2017-01-21T02:36:53.035Z,87.1
2017-01-21T02:37:33.717Z,87
2017-01-21T02:38:14.311Z,87.1
2017-01-21T02:38:54.879Z,87.19
2017-01-21T02:39:35.528Z,87
2017-01-21T02:40:16.126Z,86.91
2017-01-21T02:40:56.724Z,87.19
2017-01-21T02:41:37.286Z,87
2017-01-21T02:42:17.952Z,87.76
2017-01-21T02:42:58.535Z,87.76
2017-01-21T02:43:39.129Z,87.48
2017-01-21T02:44:19.697Z,87.57
2017-01-21T02:45:00.347Z,87.38
2017-01-21T02:45:40.937Z,87.19
2017-01-21T02:46:21.533Z,87.29
2017-01-21T02:47:02.097Z,87.57
2017-01-21T02:47:42.750Z,87.48
2017-01-21T02:48:23.348Z,87.48
2017-01-21T02:49:03.943Z,87.48
2017-01-21T02:49:44.520Z,87.38
2017-01-21T02:50:25.184Z,87.19
2017-01-21T02:51:05.848Z,87.48
2017-01-21T02:51:46.453Z,87.76
2017-01-21T02:52:27.106Z,87.29
2017-01-21T02:53:07.750Z,87.57
2017-01-21T02:53:48.408Z,87.38
2017-01-21T02:54:29.067Z,87.57
2017-01-21T02:55:09.723Z,87.85
2017-01-21T02:55:50.370Z,88.13
2017-01-21T02:56:31.024Z,88.13
2017-01-21T02:57:11.602Z,87.76
2017-01-21T02:57:52.245Z,87.76
2017-01-21T02:58:32.870Z,87.76
2017-01-21T02:59:13.468Z,87.85
2017-01-21T02:59:54.114Z,87.85
2017-01-21T03:00:34.736Z,87.95
2017-01-21T03:01:15.299Z,87.76
2017-01-21T03:01:55.866Z,87.48
2017-01-21T03:02:36.516Z,87.76
2017-01-21T03:03:17.193Z,87.48
2017-01-21T03:03:57.796Z,87.48
2017-01-21T03:04:38.369Z,87.57
2017-01-21T03:05:19.011Z,87.57
2017-01-21T03:05:59.598Z,87.66
2017-01-21T03:06:40.203Z,87.57
2017-01-21T03:07:20.851Z,87.85
2017-01-21T03:08:01.505Z,87.85
2017-01-21T03:08:42.159Z,87.95
2017-01-21T03:09:22.813Z,87.95
2017-01-21T03:10:03.462Z,87.76
2017-01-21T03:10:44.117Z,87.95
2017-01-21T03:11:24.776Z,87.95
2017-01-21T03:12:05.427Z,87.76
2017-01-21T03:12:46.072Z,87.85
2017-01-21T03:13:26.732Z,87.85
2017-01-21T03:14:07.385Z,87.48
2017-01-21T03:14:48.038Z,87.85
2017-01-21T03:15:28.691Z,87.76
2017-01-21T03:16:09.344Z,87.76
2017-01-21T03:16:49.997Z,87.85
2017-01-21T03:17:30.560Z,87.85
2017-01-21T03:18:11.210Z,88.13
2017-01-21T03:18:51.873Z,87.95
2017-01-21T03:19:32.509Z,88.7
2017-01-21T03:20:13.175Z,88.04
2017-01-21T03:20:53.835Z,87.95
2017-01-21T03:21:34.483Z,88.51
2017-01-21T03:22:15.148Z,88.51
2017-01-21T03:22:55.791Z,88.32
2017-01-21T03:23:36.435Z,88.42
2017-01-21T03:24:17.096Z,88.42
2017-01-21T03:24:57.747Z,88.13
2017-01-21T03:25:38.407Z,88.23
2017-01-21T03:26:19.061Z,88.42
2017-01-21T03:26:59.706Z,88.23
2017-01-21T03:27:40.356Z,88.32
2017-01-21T03:28:21.009Z,88.6
2017-01-21T03:29:01.665Z,88.32
2017-01-21T03:29:42.330Z,88.42
2017-01-21T03:30:22.971Z,88.42
2017-01-21T03:31:03.622Z,88.51
2017-01-21T03:31:44.285Z,88.42
2017-01-21T03:32:24.906Z,88.51
2017-01-21T03:33:05.488Z,88.89
2017-01-21T03:33:46.131Z,88.98
2017-01-21T03:34:26.766Z,88.79
2017-01-21T03:35:07.358Z,88.79
2017-01-21T03:35:48.030Z,88.7
2017-01-21T03:36:28.610Z,88.79
2017-01-21T03:37:09.179Z,88.89
2017-01-21T03:37:49.853Z,88.98
2017-01-21T03:38:30.481Z,88.6
2017-01-21T03:39:11.049Z,88.79
2017-01-21T03:39:51.700Z,88.79
2017-01-21T03:40:32.339Z,88.6
2017-01-21T03:41:12.911Z,88.51
2017-01-21T03:41:53.565Z,88.6
2017-01-21T03:42:34.191Z,88.6
2017-01-21T03:43:14.793Z,88.6
2017-01-21T03:43:55.434Z,88.51
2017-01-21T03:44:36.074Z,88.51
2017-01-21T03:45:16.725Z,88.7
2017-01-21T03:45:57.373Z,88.51
2017-01-21T03:46:38.023Z,88.6
2017-01-21T03:47:25.185Z,88.6
2017-01-21T03:48:05.843Z,88.6
2017-01-21T03:48:46.500Z,89.27
2017-01-21T03:49:27.173Z,88.89
2017-01-21T03:50:08.819Z,89.08
2017-01-21T03:50:51.421Z,89.45
2017-01-21T03:51:32.048Z,89.55
2017-01-21T03:52:12.697Z,89.36
2017-01-21T03:52:53.373Z,89.36
2017-01-21T03:53:34.025Z,89.45
2017-01-21T03:54:14.685Z,89.27
2017-01-21T03:55:01.182Z,89.45
2017-01-21T03:55:43.886Z,89.17
2017-01-21T03:56:24.505Z,89.36
2017-01-21T03:57:05.161Z,89.27
2017-01-21T03:57:50.470Z,89.36
2017-01-21T03:58:31.060Z,88.98
2017-01-21T03:59:11.631Z,89.17
2017-01-21T03:59:52.286Z,89.45
2017-01-21T04:00:33.904Z,89.17
2017-01-21T04:01:15.528Z,89.17
2017-01-21T04:01:56.091Z,89.27
2017-01-21T04:02:36.748Z,89.27
2017-01-21T04:03:17.377Z,89.08
2017-01-21T04:03:57.951Z,89.74
2017-01-21T04:04:38.590Z,89.64
2017-01-21T04:05:19.218Z,89.36
2017-01-21T04:05:59.795Z,90.02
2017-01-21T04:06:40.459Z,90.12
2017-01-21T04:07:22.121Z,89.93
2017-01-21T04:08:02.724Z,90.02
2017-01-21T04:08:43.326Z,90.02
2017-01-21T04:09:23.997Z,89.83
2017-01-21T04:10:06.602Z,90.12
2017-01-21T04:10:48.262Z,89.83
2017-01-21T04:11:28.920Z,90.02
2017-01-21T04:12:09.563Z,89.55
2017-01-21T04:12:50.213Z,89.74
2017-01-21T04:13:31.792Z,90.5
2017-01-21T04:14:12.462Z,90.4
2017-01-21T04:14:53.096Z,90.4
2017-01-21T04:15:33.751Z,90.31
2017-01-21T04:16:14.398Z,90.21
2017-01-21T04:16:55.060Z,90.21
2017-01-21T04:17:36.758Z,90.02
2017-01-21T04:18:18.345Z,90.5
2017-01-21T04:18:58.947Z,90.5
2017-01-21T04:19:39.511Z,90.5
2017-01-21T04:20:20.163Z,90.4
2017-01-21T04:21:00.761Z,90.31
2017-01-21T04:21:42.376Z,90.4
2017-01-21T04:22:22.937Z,90.4
2017-01-21T04:23:03.637Z,90.4
2017-01-21T04:23:49.005Z,90.21
2017-01-21T04:24:30.629Z,90.87
2017-01-21T04:25:11.200Z,90.02
2017-01-21T04:25:51.848Z,90.02
2017-01-21T04:26:33.464Z,89.93
2017-01-21T04:27:15.080Z,90.12
2017-01-21T04:27:55.651Z,90.59
2017-01-21T04:28:37.329Z,90.31
2017-01-21T04:29:17.967Z,90.21
2017-01-21T04:29:59.563Z,90.12
2017-01-21T04:30:41.223Z,90.02
2017-01-21T04:31:21.894Z,90.21
2017-01-21T04:32:03.536Z,90.12
2017-01-21T04:32:44.154Z,90.12
2017-01-21T04:33:24.748Z,90.02
2017-01-21T04:34:05.311Z,90.02
2017-01-21T04:34:45.982Z,90.4
2017-01-21T04:35:38.442Z,90.4
2017-01-21T04:36:19.030Z,90.21
2017-01-21T04:36:59.621Z,90.4
2017-01-21T04:37:41.280Z,90.68
2017-01-21T04:38:22.944Z,90.68
2017-01-21T04:39:05.570Z,90.68
2017-01-21T04:39:48.245Z,90.59
2017-01-21T04:40:29.873Z,90.59
2017-01-21T04:41:15.202Z,90.21
2017-01-21T04:41:56.886Z,90.4
2017-01-21T04:42:37.515Z,90.5
2017-01-21T04:43:18.204Z,90.97
2017-01-21T04:43:58.820Z,90.97
2017-01-21T04:44:39.497Z,90.87
2017-01-21T04:45:21.155Z,91.25
2017-01-21T04:46:01.810Z,91.16
2017-01-21T04:46:44.431Z,90.97
2017-01-21T04:47:26.089Z,90.78
2017-01-21T04:48:11.654Z,90.87
2017-01-21T04:48:53.311Z,90.87
2017-01-21T04:49:33.985Z,91.06
2017-01-21T04:50:16.586Z,91.25
2017-01-21T04:50:57.254Z,91.06
2017-01-21T04:51:38.927Z,91.16
2017-01-21T04:52:19.555Z,91.06
2017-01-21T04:53:00.228Z,91.35
2017-01-21T04:53:40.873Z,91.25
2017-01-21T04:54:21.554Z,91.72
2017-01-21T04:55:04.240Z,91.72
2017-01-21T04:55:45.943Z,91.44
2017-01-21T04:56:27.587Z,91.44
2017-01-21T04:57:08.230Z,91.63
2017-01-21T04:57:48.824Z,91.63
2017-01-21T04:58:29.414Z,91.53
2017-01-21T04:59:09.977Z,91.63
2017-01-21T04:59:50.636Z,91.82
2017-01-21T05:00:32.246Z,91.53
2017-01-21T05:01:12.845Z,91.53
2017-01-21T05:01:53.409Z,92
2017-01-21T05:02:34.062Z,91.82
2017-01-21T05:03:14.839Z,91.53
2017-01-21T05:04:01.223Z,91.91
2017-01-21T05:04:41.870Z,91.44
2017-01-21T05:05:24.453Z,92.19
2017-01-21T05:06:05.122Z,92.19
2017-01-21T05:06:45.782Z,92.1
2017-01-21T05:07:28.477Z,92.1
2017-01-21T05:08:13.640Z,92.1
2017-01-21T05:08:54.294Z,92
2017-01-21T05:09:36.885Z,92.19
2017-01-21T05:10:19.492Z,92.1
2017-01-21T05:11:00.124Z,92
2017-01-21T05:11:40.798Z,91.91
2017-01-21T05:12:28.232Z,91.91
2017-01-21T05:13:13.642Z,91.91
2017-01-21T05:13:54.332Z,92.19
2017-01-21T05:14:35.982Z,92.1
2017-01-21T05:15:16.648Z,92.1
2017-01-21T05:15:57.285Z,91.91
2017-01-21T05:16:37.947Z,91.82
2017-01-21T05:17:18.625Z,91.91
2017-01-21T05:17:59.266Z,91.82
2017-01-21T05:18:39.894Z,91.91
2017-01-21T05:19:20.528Z,92.38
2017-01-21T05:20:02.139Z,92.29
2017-01-21T05:20:42.780Z,92.38
2017-01-21T05:21:25.392Z,91.82
2017-01-21T05:22:11.677Z,92.66
2017-01-21T05:22:53.363Z,92.76
2017-01-21T05:23:35.959Z,92.66
2017-01-21T05:24:17.620Z,92.57
2017-01-21T05:24:58.290Z,92.66
2017-01-21T05:25:38.931Z,92.47
2017-01-21T05:26:19.573Z,92.47
2017-01-21T05:27:00.248Z,92.57
2017-01-21T05:27:45.680Z,92.57
2017-01-21T05:28:26.374Z,92.76
2017-01-21T05:29:11.625Z,92.76
2017-01-21T05:29:52.241Z,92.85
2017-01-21T05:30:32.923Z,92.38
2017-01-21T05:31:14.582Z,92.66
2017-01-21T05:31:57.209Z,92.57
2017-01-21T05:32:39.805Z,92.38
2017-01-21T05:33:20.439Z,92.38
2017-01-21T05:34:01.120Z,92.38
2017-01-21T05:34:46.680Z,92.76
2017-01-21T05:35:27.293Z,92.85
2017-01-21T05:36:07.901Z,93.13
2017-01-21T05:36:48.525Z,92.76
2017-01-21T05:37:29.194Z,92.95
2017-01-21T05:38:09.832Z,92.66
2017-01-21T05:38:50.481Z,92.85
2017-01-21T05:39:32.137Z,93.04
2017-01-21T05:40:12.829Z,92.76
2017-01-21T05:40:54.505Z,92.66
2017-01-21T05:41:35.140Z,92.76
2017-01-21T05:42:15.803Z,92.76
2017-01-21T05:42:56.458Z,92.76
2017-01-21T05:43:37.098Z,93.32
2017-01-21T05:44:17.736Z,93.32
2017-01-21T05:44:58.401Z,92.38
2017-01-21T05:45:41.017Z,93.51
2017-01-21T05:46:21.639Z,93.42
2017-01-21T05:47:04.268Z,93.13
2017-01-21T05:47:44.840Z,93.23
2017-01-21T05:48:25.441Z,93.23
2017-01-21T05:49:06.010Z,93.23
2017-01-21T05:49:47.702Z,93.42
2017-01-21T05:50:28.269Z,93.13
2017-01-21T05:51:09.902Z,93.23
2017-01-21T05:51:50.476Z,93.13
2017-01-21T05:52:35.717Z,92.95
2017-01-21T05:53:17.308Z,92.95
2017-01-21T05:53:57.965Z,92.85
2017-01-21T05:54:38.611Z,93.32
2017-01-21T05:55:19.267Z,93.51
2017-01-21T05:55:59.911Z,93.32
2017-01-21T05:56:40.575Z,93.51
2017-01-21T05:57:22.242Z,93.51
2017-01-21T05:58:02.879Z,93.61
2017-01-21T05:58:43.450Z,93.32
2017-01-21T05:59:24.110Z,93.42
2017-01-21T06:00:04.730Z,93.51
2017-01-21T06:00:45.288Z,93.42
2017-01-21T06:01:25.855Z,93.42
2017-01-21T06:02:06.483Z,93.23
2017-01-21T06:02:47.064Z,93.51
2017-01-21T06:03:27.708Z,93.13
2017-01-21T06:04:08.293Z,93.42
2017-01-21T06:04:49.915Z,93.23
2017-01-21T06:05:30.499Z,93.32
2017-01-21T06:06:11.139Z,93.51
2017-01-21T06:06:52.757Z,93.8
2017-01-21T06:07:33.316Z,93.8
2017-01-21T06:08:13.918Z,93.04
2017-01-21T06:08:54.548Z,93.8
2017-01-21T06:09:35.120Z,93.8
2017-01-21T06:10:15.774Z,94.08
2017-01-21T06:10:56.409Z,94.18
2017-01-21T06:11:36.991Z,94.08
2017-01-21T06:12:18.664Z,93.99
2017-01-21T06:12:59.292Z,94.18
2017-01-21T06:13:39.859Z,94.08
2017-01-21T06:14:20.509Z,94.08
2017-01-21T06:15:01.119Z,94.18
2017-01-21T06:15:42.717Z,93.99
2017-01-21T06:16:23.299Z,94.08
2017-01-21T06:17:03.945Z,93.8
2017-01-21T06:17:45.608Z,93.8
2017-01-21T06:18:26.168Z,94.08
2017-01-21T06:19:07.840Z,93.99
2017-01-21T06:19:48.429Z,93.99
2017-01-21T06:20:28.978Z,93.99
2017-01-21T06:21:09.603Z,93.42
2017-01-21T06:21:51.261Z,93.99
2017-01-21T06:22:31.820Z,93.99
2017-01-21T06:23:13.507Z,93.99
2017-01-21T06:23:55.182Z,93.99
2017-01-21T06:24:35.842Z,93.61
2017-01-21T06:25:17.506Z,93.8
2017-01-21T06:25:58.170Z,93.7
2017-01-21T06:26:38.826Z,93.99
2017-01-21T06:27:19.477Z,93.99
2017-01-21T06:28:00.117Z,94.18
2017-01-21T06:28:42.724Z,94.36
2017-01-21T06:29:23.365Z,94.27
2017-01-21T06:30:04.957Z,94.36
2017-01-21T06:30:45.606Z,94.27
2017-01-21T06:31:26.255Z,94.36
2017-01-21T06:32:07.934Z,94.36
2017-01-21T06:32:49.608Z,94.36
2017-01-21T06:33:30.274Z,94.18
2017-01-21T06:34:10.921Z,94.18
2017-01-21T06:34:52.596Z,94.18
2017-01-21T06:35:33.240Z,94.18
2017-01-21T06:36:13.894Z,94.36
2017-01-21T06:36:55.475Z,94.55
2017-01-21T06:37:37.145Z,93.99
2017-01-21T06:38:19.757Z,94.27
2017-01-21T06:39:00.428Z,94.36
2017-01-21T06:39:41.055Z,94.36
2017-01-21T06:40:22.731Z,93.99
2017-01-21T06:41:03.388Z,93.99
2017-01-21T06:41:44.046Z,93.99
2017-01-21T06:42:29.708Z,94.36
2017-01-21T06:43:10.358Z,94.36
2017-01-21T06:43:50.925Z,94.36
2017-01-21T06:44:31.567Z,94.36
2017-01-21T06:45:12.203Z,94.36
2017-01-21T06:45:52.779Z,94.46
2017-01-21T06:46:33.420Z,94.36
2017-01-21T06:47:14.056Z,94.27
2017-01-21T06:47:54.715Z,94.36
2017-01-21T06:48:37.416Z,94.08
2017-01-21T06:49:18.067Z,94.36
2017-01-21T06:49:58.719Z,94.55
2017-01-21T06:50:39.384Z,94.36
2017-01-21T06:51:20.018Z,94.36
2017-01-21T06:52:00.684Z,94.27
2017-01-21T06:52:41.266Z,94.27
2017-01-21T06:53:21.930Z,94.84
2017-01-21T06:54:02.602Z,94.84
2017-01-21T06:54:43.295Z,94.74
2017-01-21T06:55:23.877Z,94.74
2017-01-21T06:56:04.532Z,94.84
2017-01-21T06:56:45.214Z,94.27
2017-01-21T06:57:26.822Z,93.8
2017-01-21T06:58:07.391Z,94.46
2017-01-21T06:58:48.030Z,94.46
2017-01-21T06:59:28.637Z,94.84
2017-01-21T07:00:10.259Z,94.65
2017-01-21T07:00:50.834Z,94.84
2017-01-21T07:01:31.473Z,94.46
2017-01-21T07:02:12.044Z,94.55
2017-01-21T07:02:52.660Z,94.36
2017-01-21T07:03:33.231Z,94.55
2017-01-21T07:04:13.815Z,94.46
2017-01-21T07:04:54.414Z,94.65
2017-01-21T07:05:34.988Z,94.55
2017-01-21T07:06:15.650Z,94.55
2017-01-21T07:06:56.350Z,94.65
2017-01-21T07:07:36.908Z,94.74
2017-01-21T07:08:17.599Z,94.84
2017-01-21T07:08:58.231Z,94.46
2017-01-21T07:09:38.818Z,94.55
2017-01-21T07:10:19.448Z,94.55
2017-01-21T07:11:01.109Z,94.46
2017-01-21T07:11:41.675Z,94.46
2017-01-21T07:12:22.339Z,94.46
2017-01-21T07:13:02.966Z,94.74
2017-01-21T07:13:43.624Z,94.65
2017-01-21T07:14:24.265Z,94.55
2017-01-21T07:15:04.924Z,94.55
2017-01-21T07:15:45.580Z,94.46
2017-01-21T07:16:26.241Z,94.46
2017-01-21T07:17:06.888Z,94.46
2017-01-21T07:17:47.542Z,94.55
2017-01-21T07:18:28.190Z,94.55
2017-01-21T07:19:08.953Z,94.46
2017-01-21T07:19:49.595Z,95.12
2017-01-21T07:20:31.275Z,95.03
2017-01-21T07:21:11.935Z,94.93
2017-01-21T07:21:52.587Z,94.93
2017-01-21T07:22:33.246Z,95.12
2017-01-21T07:23:13.895Z,95.31
2017-01-21T07:23:55.577Z,95.12
2017-01-21T07:24:36.221Z,95.21
2017-01-21T07:25:16.870Z,95.03
2017-01-21T07:25:57.528Z,95.12
2017-01-21T07:26:38.179Z,95.03
2017-01-21T07:27:18.813Z,94.93
2017-01-21T07:27:59.381Z,95.12
2017-01-21T07:28:40.042Z,94.84
2017-01-21T07:29:20.689Z,94.74
2017-01-21T07:30:01.302Z,94.84
2017-01-21T07:30:41.989Z,94.74
2017-01-21T07:31:22.762Z,94.93
2017-01-21T07:32:03.721Z,94.93
2017-01-21T07:32:44.329Z,95.5
2017-01-21T07:33:24.941Z,95.5
2017-01-21T07:34:05.596Z,95.31
2017-01-21T07:34:46.233Z,95.31
2017-01-21T07:35:26.902Z,95.5
2017-01-21T07:36:07.523Z,95.31
2017-01-21T07:36:48.174Z,95.5
2017-01-21T07:37:28.861Z,95.31
2017-01-21T07:38:09.561Z,95.21
2017-01-21T07:38:50.130Z,94.93
2017-01-21T07:39:30.668Z,94.93
2017-01-21T07:40:11.347Z,95.12
2017-01-21T07:40:51.947Z,95.31
2017-01-21T07:41:33.575Z,95.31
2017-01-21T07:42:14.136Z,95.21
2017-01-21T07:42:54.865Z,95.31
2017-01-21T07:43:35.530Z,95.31
2017-01-21T07:44:16.106Z,95.31
2017-01-21T07:44:56.746Z,95.21
2017-01-21T07:45:37.313Z,95.31
2017-01-21T07:46:17.929Z,95.31
2017-01-21T07:46:58.484Z,95.31
2017-01-21T07:47:39.255Z,95.03
2017-01-21T07:48:19.991Z,95.21
2017-01-21T07:49:00.572Z,95.5
2017-01-21T07:49:41.331Z,95.21
2017-01-21T07:50:22.049Z,95.03
2017-01-21T07:51:02.614Z,95.03
2017-01-21T07:51:43.362Z,95.03
2017-01-21T07:52:25.143Z,95.03
2017-01-21T07:53:05.720Z,95.12
2017-01-21T07:53:46.460Z,95.12
2017-01-21T07:54:27.051Z,95.03
2017-01-21T07:55:07.749Z,95.21
2017-01-21T07:55:48.320Z,94.84
2017-01-21T07:56:29.077Z,95.87
2017-01-21T07:57:09.871Z,95.97
2017-01-21T07:57:50.564Z,95.68
2017-01-21T07:58:31.126Z,95.87
2017-01-21T07:59:12.914Z,95.87
2017-01-21T07:59:53.651Z,95.68
2017-01-21T08:00:34.480Z,95.87
2017-01-21T08:01:15.231Z,95.59
2017-01-21T08:01:55.932Z,95.78
2017-01-21T08:02:36.687Z,95.87
2017-01-21T08:03:17.325Z,95.68
2017-01-21T08:03:57.863Z,95.68
2017-01-21T08:04:38.593Z,95.87
2017-01-21T08:05:19.170Z,95.59
2017-01-21T08:05:59.817Z,95.59
2017-01-21T08:06:40.556Z,95.59
2017-01-21T08:07:22.252Z,95.87
2017-01-21T08:08:02.876Z,95.59
2017-01-21T08:08:43.472Z,95.78
2017-01-21T08:09:24.081Z,95.31
2017-01-21T08:10:04.669Z,95.4
2017-01-21T08:10:45.328Z,95.78
2017-01-21T08:11:26.022Z,95.31
2017-01-21T08:12:06.699Z,95.78
2017-01-21T08:12:47.379Z,95.78
2017-01-21T08:13:28.024Z,95.78
2017-01-21T08:14:08.676Z,95.78
2017-01-21T08:14:49.344Z,95.31
2017-01-21T08:15:29.982Z,95.68
2017-01-21T08:16:10.637Z,95.59
2017-01-21T08:16:52.225Z,95.68
2017-01-21T08:17:32.863Z,95.5
2017-01-21T08:18:13.421Z,95.5
2017-01-21T08:18:54.083Z,95.59
2017-01-21T08:19:34.725Z,95.68
2017-01-21T08:20:15.280Z,95.68
2017-01-21T08:20:55.946Z,95.5
2017-01-21T08:21:36.592Z,95.68
2017-01-21T08:22:17.227Z,95.68
2017-01-21T08:22:57.886Z,95.78
2017-01-21T08:23:38.495Z,95.59
2017-01-21T08:24:19.082Z,95.68
2017-01-21T08:24:59.634Z,95.68
2017-01-21T08:25:40.303Z,95.68
2017-01-21T08:26:20.903Z,95.68
2017-01-21T08:27:01.492Z,95.59
2017-01-21T08:27:42.079Z,95.68
2017-01-21T08:28:22.720Z,95.59
2017-01-21T08:29:03.380Z,95.5
2017-01-21T08:29:45.065Z,95.68
2017-01-21T08:30:26.713Z,95.78
2017-01-21T08:31:07.377Z,95.78
2017-01-21T08:31:48.034Z,95.68
2017-01-21T08:32:34.619Z,95.78
2017-01-21T08:33:15.180Z,95.4
2017-01-21T08:33:55.733Z,95.59
2017-01-21T08:34:41.179Z,95.97
2017-01-21T08:35:22.844Z,96.06
2017-01-21T08:36:03.409Z,96.15
2017-01-21T08:36:44.065Z,96.06
2017-01-21T08:37:29.309Z,96.06
2017-01-21T08:38:09.868Z,96.11
2017-01-21T08:38:50.524Z,96.11
2017-01-21T08:39:31.195Z,96.11
2017-01-21T08:40:18.674Z,96.01
2017-01-21T08:41:01.236Z,95.73
2017-01-21T08:41:43.879Z,95.92
2017-01-21T08:42:26.488Z,95.83
2017-01-21T08:43:08.095Z,96.2
2017-01-21T08:43:54.328Z,96.01
2017-01-21T08:44:34.892Z,96.01
2017-01-21T08:45:31.125Z,95.83
2017-01-21T08:46:13.753Z,95.54
2017-01-21T08:47:06.335Z,95.92
2017-01-21T08:47:46.894Z,95.54
2017-01-21T08:48:28.570Z,95.83
2017-01-21T08:49:09.220Z,96.11
2017-01-21T08:49:49.772Z,95.73
2017-01-21T08:50:35.157Z,95.83